Marne, Iowa
Current Conditions -  °F | °C
As of 6:15 AM on Thursday 29 Jan 2015 (Local Time) from KAIO Reporting Station
Overcast Overcast  
Wind Chill: 22°   Ceiling: 1700
Heat Index: 34°   Visibility: 9mi
Dew Point: 32°   Wind: 22mph
Humidity: 93%   Direction: 330°NNW
Pressure: 30.15"   Gusts: 29mph
Location:  41.45°N, 95.11°W
Report Text: KAIO 291215Z AUTO 33019G25KT 9SM BKN017 OVC025 01/M00 A3015 RMK AO2
Loading
Personal Weather Stations






























Interactive Weather Map New forecast layout! Learn more

10-Day Weather Forecast

Advertisements
Track Severe Weather on mobile